Time;durP1;ratioP1;P1;durP2;ratioP2;P2;SDS_P1;SDS_P2;PMS_P1;PMS_P2;Temp;Humidity;BMP_temperature;BMP_pressure;BME280_temperature;BME280_humidity;BME280_pressure;Samples;Min_cycle;Max_cycle;Signal;HPM_P1;HPM_P2
2021/05/11 00:00:31;;;;;;;1999.90;999.90;;;14.80;99.90;;;;;;5053542;28;20201;-73
2021/05/11 00:02:58;;;;;;;1999.90;999.90;;;14.60;99.90;;;;;;5053589;28;20311;-73
2021/05/11 00:05:27;;;;;;;1999.90;999.90;;;14.50;99.90;;;;;;5055226;28;20533;-73
2021/05/11 00:07:54;;;;;;;1999.90;999.90;;;14.30;99.90;;;;;;5053634;28;20670;-73
2021/05/11 00:10:19;;;;;;;1999.90;999.90;;;14.30;99.90;;;;;;5053802;28;20220;-73
2021/05/11 00:12:45;;;;;;;1999.90;999.90;;;14.10;99.90;;;;;;5053314;28;20648;-73
2021/05/11 00:15:11;;;;;;;1999.90;999.90;;;14.10;99.90;;;;;;5053534;28;20188;-73
2021/05/11 00:17:37;;;;;;;1999.90;999.90;;;14.20;99.90;;;;;;5053619;28;20229;-73
2021/05/11 00:20:03;;;;;;;1999.90;999.90;;;14.10;99.90;;;;;;5053598;28;20749;-73
2021/05/11 00:22:29;;;;;;;1999.90;999.90;;;14.30;99.90;;;;;;5053565;28;20178;-73
2021/05/11 00:24:55;;;;;;;1999.90;999.90;;;14.30;99.90;;;;;;5053044;28;20548;-73
2021/05/11 00:27:20;;;;;;;1999.90;999.90;;;14.20;99.90;;;;;;5053493;28;20181;-73
2021/05/11 00:29:46;;;;;;;1999.90;999.90;;;14.30;99.90;;;;;;5053325;28;20205;-74
2021/05/11 00:32:12;;;;;;;1999.90;999.90;;;14.40;99.90;;;;;;5053418;28;20272;-73
2021/05/11 00:34:37;;;;;;;1999.90;999.90;;;14.30;99.90;;;;;;5053857;28;20194;-73
2021/05/11 00:37:03;;;;;;;1999.90;999.90;;;14.30;99.90;;;;;;5053222;28;20198;-73
2021/05/11 00:39:28;;;;;;;1999.90;999.90;;;14.30;99.90;;;;;;5053136;28;20192;-73
2021/05/11 00:41:54;;;;;;;1999.90;999.90;;;14.40;99.90;;;;;;5052961;28;20182;-73
2021/05/11 00:44:26;;;;;;;1999.90;999.90;;;14.40;99.90;;;;;;5053309;28;20174;-73
2021/05/11 00:47:00;;;;;;;1999.90;999.90;;;14.40;99.90;;;;;;5053145;28;20181;-73
2021/05/11 00:49:26;;;;;;;1999.90;999.90;;;14.40;99.90;;;;;;5053135;28;20173;-73
2021/05/11 00:51:53;;;;;;;1999.90;999.90;;;14.50;99.90;;;;;;5053081;28;20196;-73
2021/05/11 00:54:19;;;;;;;1999.90;999.90;;;14.50;99.90;;;;;;5051937;28;20551;-73
2021/05/11 00:56:47;;;;;;;1999.90;999.90;;;14.50;99.90;;;;;;5052979;28;20219;-73
2021/05/11 00:59:24;;;;;;;1999.90;999.90;;;14.50;99.90;;;;;;5052837;28;20178;-73
2021/05/11 01:01:50;;;;;;;1999.90;999.90;;;14.50;99.90;;;;;;5052988;28;20177;-73
2021/05/11 01:04:16;;;;;;;1999.90;999.90;;;14.50;99.90;;;;;;5052833;28;20174;-73
2021/05/11 01:06:42;;;;;;;1999.90;999.90;;;14.30;99.90;;;;;;5053800;28;20184;-73
2021/05/11 01:09:07;;;;;;;1999.90;999.90;;;14.20;99.90;;;;;;5051495;28;20600;-72
2021/05/11 01:11:35;;;;;;;1999.90;999.90;;;14.10;99.90;;;;;;5052592;28;20202;-73
2021/05/11 01:14:01;;;;;;;1999.90;999.90;;;14.10;99.90;;;;;;5052600;28;20177;-73
2021/05/11 01:16:29;;;;;;;1999.90;999.90;;;14.00;99.90;;;;;;5052605;28;20221;-73
2021/05/11 01:18:59;;;;;;;1999.90;999.90;;;14.00;99.90;;;;;;5052576;28;20174;-73
2021/05/11 01:21:34;;;;;;;1999.90;999.90;;;13.60;99.90;;;;;;5052308;28;20194;-73
2021/05/11 01:24:04;;;;;;;1999.90;999.90;;;13.70;99.90;;;;;;5052525;28;20679;-73
2021/05/11 01:26:38;;;;;;;1999.90;999.90;;;13.40;99.90;;;;;;5052236;28;20194;-73
2021/05/11 01:48:12;;;;;;;1999.90;999.90;;;13.70;99.90;;;;;;5052215;28;20182;-73
2021/05/11 01:55:57;;;;;;;1999.90;999.90;;;13.60;99.90;;;;;;5040443;28;20244;-73
2021/05/11 02:22:47;;;;;;;1999.90;999.90;;;12.80;99.90;;;;;;5052443;28;20232;-73
2021/05/11 02:25:14;;;;;;;1999.90;999.90;;;12.80;99.90;;;;;;5046342;28;20173;-73
2021/05/11 02:27:40;;;;;;;1999.90;999.90;;;12.70;99.90;;;;;;5044162;28;20194;-73
2021/05/11 02:30:10;;;;;;;1999.90;999.90;;;12.70;99.90;;;;;;5050487;28;20283;-74
2021/05/11 02:32:40;;;;;;;1999.90;999.90;;;12.70;99.90;;;;;;5050738;28;20198;-73
2021/05/11 02:35:08;;;;;;;1999.90;999.90;;;12.90;99.90;;;;;;5051709;28;20584;-73
2021/05/11 02:37:33;;;;;;;1999.90;999.90;;;12.90;99.90;;;;;;5052637;28;20186;-74
2021/05/11 02:39:59;;;;;;;1999.90;999.90;;;12.80;99.90;;;;;;5051114;28;20205;-74
2021/05/11 02:42:26;;;;;;;1999.90;999.90;;;12.90;99.90;;;;;;5051226;28;20166;-73
2021/05/11 02:44:52;;;;;;;1999.90;999.90;;;12.90;99.90;;;;;;5051153;28;20184;-73
2021/05/11 02:47:18;;;;;;;1999.90;999.90;;;13.00;99.90;;;;;;5051112;28;20178;-74
2021/05/11 02:49:45;;;;;;;1999.90;999.90;;;13.00;99.90;;;;;;5051075;28;20231;-73
2021/05/11 02:52:12;;;;;;;1999.90;999.90;;;13.00;99.90;;;;;;5049695;28;20181;-73
2021/05/11 02:54:38;;;;;;;1999.90;999.90;;;13.00;99.90;;;;;;5050630;28;20694;-73
2021/05/11 02:57:05;;;;;;;1999.90;999.90;;;13.00;99.90;;;;;;5050808;28;20274;-73
2021/05/11 02:59:31;;;;;;;1999.90;999.90;;;13.00;99.90;;;;;;5050913;28;20655;-72
2021/05/11 03:01:57;;;;;;;1999.90;999.90;;;12.80;99.90;;;;;;5050955;28;20174;-73
2021/05/11 03:04:23;;;;;;;1999.90;999.90;;;12.60;99.90;;;;;;5050760;28;20171;-73
2021/05/11 03:06:48;;;;;;;1999.90;999.90;;;12.60;99.90;;;;;;5050899;28;20174;-73
2021/05/11 03:09:14;;;;;;;1999.90;999.90;;;12.60;99.90;;;;;;5049456;28;20256;-73
2021/05/11 03:11:40;;;;;;;1999.90;999.90;;;12.50;99.90;;;;;;5050794;28;20197;-73
2021/05/11 03:14:06;;;;;;;1999.90;999.90;;;12.50;99.90;;;;;;5049959;28;20240;-73
2021/05/11 03:16:34;;;;;;;1999.90;999.90;;;12.50;99.90;;;;;;5050783;28;21120;-73
2021/05/11 03:18:59;;;;;;;1999.90;999.90;;;12.20;99.90;;;;;;5051170;28;20582;-72
2021/05/11 03:21:25;;;;;;;1999.90;999.90;;;12.00;99.90;;;;;;5048464;28;20198;-74
2021/05/11 03:23:51;;;;;;;1999.90;999.90;;;12.10;99.90;;;;;;5040704;28;20174;-74
2021/05/11 03:26:16;;;;;;;1999.90;999.90;;;12.00;99.90;;;;;;5050646;28;20218;-73
2021/05/11 03:28:42;;;;;;;1999.90;999.90;;;12.10;99.90;;;;;;5049327;28;20217;-73
2021/05/11 03:31:08;;;;;;;1999.90;999.90;;;12.10;99.90;;;;;;5050606;28;20691;-73
2021/05/11 03:33:33;;;;;;;1999.90;999.90;;;12.00;99.90;;;;;;5050609;28;20180;-73
2021/05/11 03:35:59;;;;;;;1999.90;999.90;;;12.10;99.90;;;;;;5050549;28;20197;-73
2021/05/11 03:38:24;;;;;;;1999.90;999.90;;;12.00;99.90;;;;;;5050535;28;20609;-73
2021/05/11 03:40:51;;;;;;;1999.90;999.90;;;12.10;99.90;;;;;;5061609;22;20216;-66
2021/05/11 03:43:30;;;;;;;1999.90;999.90;;;12.20;99.90;;;;;;5084358;28;20306;-68
2021/05/11 03:46:03;;;;;;;1999.90;999.90;;;12.30;99.90;;;;;;5077329;28;20204;-68
2021/05/11 03:48:29;;;;;;;1999.90;999.90;;;12.40;99.90;;;;;;5078982;28;20181;-68
2021/05/11 03:50:55;;;;;;;1999.90;999.90;;;12.40;99.90;;;;;;5075713;28;20196;-67
2021/05/11 03:53:20;;;;;;;1999.90;999.90;;;12.50;99.90;;;;;;5071102;28;20553;-67
2021/05/11 03:55:47;;;;;;;1999.90;999.90;;;12.50;99.90;;;;;;5069553;28;20234;-66
2021/05/11 03:58:13;;;;;;;1999.90;999.90;;;12.40;99.90;;;;;;5072575;28;20177;-66
2021/05/11 04:00:40;;;;;;;1999.90;999.90;;;12.40;99.90;;;;;;5064689;28;20201;-67
2021/05/11 04:03:06;;;;;;;1999.90;999.90;;;12.40;99.90;;;;;;5053990;28;20695;-67
2021/05/11 04:05:32;;;;;;;1999.90;999.90;;;12.40;99.90;;;;;;5056641;28;20170;-68
2021/05/11 04:08:00;;;;;;;1999.90;999.90;;;12.40;99.90;;;;;;5072074;28;20166;-68
2021/05/11 04:10:34;;;;;;;1999.90;999.90;;;12.40;99.90;;;;;;5070413;28;20227;-68
2021/05/11 04:18:28;;;;;;;1999.90;999.90;;;12.30;99.90;;;;;;5057844;28;20255;-67
2021/05/11 04:20:54;;;;;;;1999.90;999.90;;;12.40;99.90;;;;;;5058351;28;20626;-67
2021/05/11 04:23:20;;;;;;;1999.90;999.90;;;12.40;99.90;;;;;;5057801;28;20170;-67
2021/05/11 04:25:46;;;;;;;1999.90;999.90;;;12.40;99.90;;;;;;5065745;28;20177;-66
2021/05/11 04:28:12;;;;;;;1999.90;999.90;;;12.40;99.90;;;;;;5075837;28;20589;-67
2021/05/11 04:30:37;;;;;;;1999.90;999.90;;;12.40;99.90;;;;;;5075653;28;20188;-67
2021/05/11 04:33:03;;;;;;;1999.90;999.90;;;12.30;99.90;;;;;;5075820;28;20173;-67
2021/05/11 04:35:29;;;;;;;1999.90;999.90;;;12.30;99.90;;;;;;5075625;28;20176;-67
2021/05/11 04:37:54;;;;;;;1999.90;999.90;;;12.40;99.90;;;;;;5073628;28;20193;-66
2021/05/11 04:40:21;;;;;;;1999.90;999.90;;;12.40;99.90;;;;;;5075352;28;20173;-67
2021/05/11 04:42:46;;;;;;;1999.90;999.90;;;12.40;99.90;;;;;;5075366;28;20173;-67
2021/05/11 04:45:19;;;;;;;1999.90;999.90;;;12.40;99.90;;;;;;5075430;28;20521;-71
2021/05/11 04:47:47;;;;;;;1999.90;999.90;;;12.40;99.90;;;;;;5075699;28;20181;-76
2021/05/11 04:50:18;;;;;;;1999.90;999.90;;;12.50;99.90;;;;;;5073235;28;20188;-76
2021/05/11 04:52:44;;;;;;;1999.90;999.90;;;12.50;99.90;;;;;;5074207;28;20643;-76
2021/05/11 04:55:12;;;;;;;1999.90;999.90;;;12.50;99.90;;;;;;5074057;28;20176;-76
2021/05/11 04:57:37;;;;;;;1999.90;999.90;;;12.60;99.90;;;;;;5070238;28;20201;-76
2021/05/11 05:00:05;;;;;;;1999.90;999.90;;;12.60;99.90;;;;;;5077980;28;20173;-76
2021/05/11 05:02:33;;;;;;;1999.90;999.90;;;12.60;99.90;;;;;;5084505;28;20180;-76
2021/05/11 05:04:59;;;;;;;1999.90;999.90;;;12.60;99.90;;;;;;5075248;28;20200;-76
2021/05/11 05:07:25;;;;;;;1999.90;999.90;;;12.70;99.90;;;;;;5075035;28;20579;-76
2021/05/11 05:09:51;;;;;;;1999.90;999.90;;;12.70;99.90;;;;;;5075131;28;20207;-76
2021/05/11 05:12:16;;;;;;;1999.90;999.90;;;12.70;99.90;;;;;;5061629;28;20193;-76
2021/05/11 05:14:42;;;;;;;1999.90;999.90;;;12.80;99.90;;;;;;5065630;28;20183;-76
2021/05/11 05:17:08;;;;;;;1999.90;999.90;;;12.90;99.90;;;;;;5094953;28;20207;-75
2021/05/11 05:19:34;;;;;;;1999.90;999.90;;;12.90;99.90;;;;;;5094985;28;20172;-76
2021/05/11 05:22:01;;;;;;;1999.90;999.90;;;12.90;99.90;;;;;;5094995;28;20585;-76
2021/05/11 05:24:42;;;;;;;1999.90;999.90;;;13.00;99.90;;;;;;5094826;28;20176;-76
2021/05/11 05:29:54;;;;;;;1999.90;999.90;;;13.00;99.90;;;;;;5072658;28;20232;-76
2021/05/11 05:32:19;;;;;;;1999.90;999.90;;;13.10;99.90;;;;;;5093449;28;20226;-76
2021/05/11 05:34:45;;;;;;;1999.90;999.90;;;13.10;99.90;;;;;;5094819;28;20176;-76
2021/05/11 05:37:11;;;;;;;1999.90;999.90;;;13.10;99.90;;;;;;5093367;28;20703;-76
2021/05/11 05:42:03;;;;;;;1999.90;999.90;;;13.10;99.90;;;;;;5094520;28;20211;-76
2021/05/11 05:44:29;;;;;;;1999.90;999.90;;;13.10;99.90;;;;;;5094798;28;20255;-76
2021/05/11 05:46:54;;;;;;;1999.90;999.90;;;13.10;99.90;;;;;;5079329;28;20728;-75
2021/05/11 05:49:21;;;;;;;1999.90;999.90;;;13.20;99.90;;;;;;5094522;28;20172;-76
2021/05/11 05:51:49;;;;;;;1999.90;999.90;;;13.20;99.90;;;;;;5072221;28;20656;-76
2021/05/11 05:54:15;;;;;;;1999.90;999.90;;;13.20;99.90;;;;;;5065284;28;20547;-76
2021/05/11 05:56:41;;;;;;;1999.90;999.90;;;13.20;99.90;;;;;;5071358;28;20200;-76
2021/05/11 05:59:06;;;;;;;1999.90;999.90;;;13.20;99.90;;;;;;5069616;28;20568;-76
2021/05/11 06:01:32;;;;;;;1999.90;999.90;;;13.20;99.90;;;;;;5094942;28;20192;-76
2021/05/11 06:04:17;;;;;;;1999.90;999.90;;;13.30;99.90;;;;;;5092435;28;20169;-76
2021/05/11 06:06:43;;;;;;;1999.90;999.90;;;13.30;99.90;;;;;;5094563;28;20542;-76
2021/05/11 06:09:22;;;;;;;1999.90;999.90;;;13.30;99.90;;;;;;5094104;28;20323;-76
2021/05/11 06:19:32;;;;;;;1999.90;999.90;;;13.60;99.90;;;;;;5073416;28;20727;-76
2021/05/11 06:21:57;;;;;;;1999.90;999.90;;;13.70;99.90;;;;;;5073086;28;20193;-76
2021/05/11 06:24:23;;;;;;;1999.90;999.90;;;13.70;99.90;;;;;;5071798;28;20238;-77
2021/05/11 06:26:51;;;;;;;1999.90;999.90;;;13.70;99.90;;;;;;5073225;28;20520;-76
2021/05/11 06:29:18;;;;;;;1999.90;999.90;;;13.70;99.90;;;;;;5057492;28;20184;-76
2021/05/11 06:31:44;;;;;;;1999.90;999.90;;;13.80;99.90;;;;;;5086207;28;20188;-76
2021/05/11 06:34:10;;;;;;;1999.90;999.90;;;13.80;99.90;;;;;;5092286;28;20669;-76
2021/05/11 06:36:36;;;;;;;1999.90;999.90;;;13.80;99.90;;;;;;5063180;28;20267;-77
2021/05/11 06:39:12;;;;;;;1999.90;999.90;;;13.80;99.90;;;;;;5071789;28;20595;-76
2021/05/11 06:41:40;;;;;;;1999.90;999.90;;;13.80;99.90;;;;;;5073177;28;20216;-76
2021/05/11 06:44:14;;;;;;;1999.90;999.90;;;13.80;99.90;;;;;;5073324;28;20180;-76
2021/05/11 06:54:51;;;;;;;1999.90;999.90;;;13.90;99.90;;;;;;5073060;28;20218;-76
2021/05/11 06:57:17;;;;;;;1999.90;999.90;;;13.90;99.90;;;;;;5073015;28;20197;-76
2021/05/11 06:59:43;;;;;;;1999.90;999.90;;;13.90;99.90;;;;;;5073419;28;20242;-76
2021/05/11 07:02:09;;;;;;;1999.90;999.90;;;13.90;99.90;;;;;;5071151;28;20684;-76
2021/05/11 07:04:34;;;;;;;1999.90;999.90;;;14.00;99.90;;;;;;5071715;28;20173;-76
2021/05/11 07:07:01;;;;;;;1999.90;999.90;;;14.00;99.90;;;;;;5072767;28;20169;-76
2021/05/11 07:14:54;;;;;;;1999.90;999.90;;;14.20;99.90;;;;;;5054788;28;20232;-75
2021/05/11 07:17:26;;;;;;;1999.90;999.90;;;14.30;99.90;;;;;;5050811;28;20206;-73
2021/05/11 07:19:52;;;;;;;1999.90;999.90;;;14.40;99.90;;;;;;5057232;28;20174;-76
2021/05/11 07:22:18;;;;;;;1999.90;999.90;;;14.40;99.90;;;;;;5059247;28;20673;-76
2021/05/11 07:24:47;;;;;;;1999.90;999.90;;;14.40;99.90;;;;;;5053081;28;20494;-76
2021/05/11 07:30:08;;;;;;;1999.90;999.90;;;14.60;99.90;;;;;;5054605;28;20178;-76
2021/05/11 07:32:45;;;;;;;1999.90;999.90;;;14.70;99.90;;;;;;5050559;28;20260;-72
2021/05/11 07:35:12;;;;;;;1999.90;999.90;;;14.80;99.90;;;;;;5068098;28;20652;-72
2021/05/11 07:38:13;;;;;;;1999.90;999.90;;;14.80;99.90;;;;;;5049194;28;20198;-73
2021/05/11 07:40:44;;;;;;;1999.90;999.90;;;14.90;99.90;;;;;;5046347;28;20195;-73
2021/05/11 07:43:11;;;;;;;1999.90;999.90;;;15.00;99.90;;;;;;5050812;28;20227;-76
2021/05/11 07:46:10;;;;;;;1999.90;999.90;;;15.00;99.90;;;;;;5051337;28;20180;-73
2021/05/11 08:15:19;;;;;;;1999.90;999.90;;;15.20;99.90;;;;;;5055182;28;20243;-72
2021/05/11 08:17:50;;;;;;;1999.90;999.90;;;15.30;99.90;;;;;;5056808;28;20276;-76
2021/05/11 08:28:30;;;;;;;1999.90;999.90;;;15.50;99.90;;;;;;5056438;28;20237;-76
2021/05/11 08:30:56;;;;;;;1999.90;999.90;;;15.50;99.90;;;;;;5055887;28;20655;-72
2021/05/11 08:33:21;;;;;;;1999.90;999.90;;;15.60;99.90;;;;;;5050990;28;20660;-76
2021/05/11 08:35:51;;;;;;;1999.90;999.90;;;15.60;99.90;;;;;;5048248;28;20186;-76
2021/05/11 08:38:17;;;;;;;1999.90;999.90;;;15.70;99.90;;;;;;5041355;28;20261;-76
2021/05/11 08:40:43;;;;;;;1999.90;999.90;;;15.80;99.90;;;;;;5056093;28;20201;-76
2021/05/11 08:43:33;;;;;;;1999.90;999.90;;;15.90;99.90;;;;;;5075779;28;20204;-75
2021/05/11 08:46:03;;;;;;;1999.90;999.90;;;16.00;99.90;;;;;;5060076;28;20471;-73
2021/05/11 08:48:33;;;;;;;1999.90;999.90;;;15.90;99.90;;;;;;5053811;28;20174;-72
2021/05/11 08:51:05;;;;;;;1999.90;999.90;;;15.90;99.90;;;;;;5054205;28;20285;-76
2021/05/11 09:27:07;;;;;;;1999.90;999.90;;;16.50;99.90;;;;;;5051951;28;20201;-76
2021/05/11 10:48:35;;;;;;;1999.90;999.90;;;18.30;99.90;;;;;;5056851;28;20195;-80
2021/05/11 10:51:04;;;;;;;1999.90;999.90;;;18.20;99.90;;;;;;5086636;28;20206;-80
2021/05/11 10:53:41;;;;;;;1999.90;999.90;;;18.20;99.90;;;;;;5086037;28;20602;-80
2021/05/11 10:56:41;;;;;;;1999.90;999.90;;;18.40;99.90;;;;;;5086568;28;20176;-80
2021/05/11 10:59:29;;;;;;;1999.90;999.90;;;18.50;99.90;;;;;;5082531;28;20177;-81
2021/05/11 11:01:59;;;;;;;1999.90;999.90;;;18.60;99.90;;;;;;5086085;28;20164;-80
2021/05/11 11:04:32;;;;;;;1999.90;999.90;;;18.60;99.90;;;;;;5085834;28;20185;-80
2021/05/11 11:07:01;;;;;;;1999.90;999.90;;;18.70;99.90;;;;;;5084849;28;20172;-80
2021/05/11 11:09:30;;;;;;;1999.90;999.90;;;18.80;99.90;;;;;;5085363;28;20176;-79
2021/05/11 11:11:57;;;;;;;1999.90;999.90;;;18.80;99.90;;;;;;5087423;28;20180;-80
2021/05/11 11:14:24;;;;;;;1999.90;999.90;;;18.70;99.90;;;;;;5088227;28;20177;-80
2021/05/11 11:17:05;;;;;;;1999.90;999.90;;;18.70;99.90;;;;;;5086980;28;20189;-81
2021/05/11 11:19:32;;;;;;;1999.90;999.90;;;18.70;99.90;;;;;;5083715;28;20168;-78
2021/05/11 11:24:33;;;;;;;1999.90;999.90;;;18.70;99.90;;;;;;5079523;28;20177;-85
2021/05/11 11:26:59;;;;;;;1999.90;999.90;;;18.50;99.90;;;;;;5078343;28;20218;-84
2021/05/11 11:29:26;;;;;;;1999.90;999.90;;;18.50;99.90;;;;;;5076231;28;20174;-88
2021/05/11 11:31:51;;;;;;;1999.90;999.90;;;18.40;99.90;;;;;;5064052;28;20188;-85
2021/05/11 11:34:36;;;;;;;1999.90;999.90;;;18.30;99.90;;;;;;5063164;28;20546;-84
2021/05/11 11:37:14;;;;;;;1999.90;999.90;;;18.20;99.90;;;;;;5081679;28;20750;-87
2021/05/11 11:39:48;;;;;;;1999.90;999.90;;;18.30;99.90;;;;;;5079530;28;20169;-85
2021/05/11 11:42:25;;;;;;;1999.90;999.90;;;18.40;99.90;;;;;;5080578;28;20707;-85
2021/05/11 11:45:00;;;;;;;1999.90;999.90;;;18.20;99.90;;;;;;5085612;28;20188;-86
2021/05/11 11:47:28;;;;;;;1999.90;999.90;;;17.80;99.90;;;;;;5084707;28;20176;-85
2021/05/11 11:49:59;;;;;;;1999.90;999.90;;;17.60;99.90;;;;;;5070563;28;20178;-86
2021/05/11 11:52:38;;;;;;;1999.90;999.90;;;17.60;99.90;;;;;;5061546;28;20196;-86
2021/05/11 11:55:22;;;;;;;1999.90;999.90;;;17.70;99.90;;;;;;5080329;28;20248;-86
2021/05/11 12:00:14;;;;;;;1999.90;999.90;;;17.40;99.90;;;;;;5097105;28;20562;-86
2021/05/11 12:13:23;;;;;;;1999.90;999.90;;;17.20;99.90;;;;;;5103570;22;20230;-86
2021/05/11 12:16:28;;;;;;;1999.90;999.90;;;17.10;99.90;;;;;;5090092;28;20188;-86
2021/05/11 12:19:07;;;;;;;1999.90;999.90;;;17.20;99.90;;;;;;5000062;28;20218;-86
2021/05/11 12:24:16;;;;;;;1999.90;999.90;;;16.80;99.90;;;;;;5347938;22;20228;-86
2021/05/11 12:49:05;;;;;;;1999.90;999.90;;;16.60;99.90;;;;;;4738618;23;20233;-81
2021/05/11 12:51:38;;;;;;;1999.90;999.90;;;16.40;99.90;;;;;;5045716;28;20597;-84
2021/05/11 12:54:34;;;;;;;1999.90;999.90;;;16.00;99.90;;;;;;5043457;28;20195;-84
2021/05/11 13:39:13;;;;;;;1999.90;999.90;;;13.50;99.90;;;;;;5188990;22;20245;-84
2021/05/11 13:42:00;;;;;;;1999.90;999.90;;;13.50;99.90;;;;;;5125449;28;20172;-81
2021/05/11 13:44:34;;;;;;;1999.90;999.90;;;13.60;99.90;;;;;;5105206;28;20514;-81
2021/05/11 13:47:03;;;;;;;1999.90;999.90;;;13.60;99.90;;;;;;5104112;28;20255;-81
2021/05/11 13:49:29;;;;;;;1999.90;999.90;;;13.60;99.90;;;;;;5102174;28;20176;-81
2021/05/11 13:52:20;;;;;;;1999.90;999.90;;;13.60;99.90;;;;;;5087630;28;20178;-83
2021/05/11 13:55:34;;;;;;;1999.90;999.90;;;13.90;99.90;;;;;;5003140;28;20629;-84
2021/05/11 14:03:29;;;;;;;1999.90;999.90;;;13.60;99.90;;;;;;5092710;28;20195;-75
2021/05/11 14:05:54;;;;;;;1999.90;999.90;;;13.60;99.90;;;;;;5091576;28;20548;-77
2021/05/11 14:08:20;;;;;;;1999.90;999.90;;;13.50;99.90;;;;;;5079527;28;20555;-77
2021/05/11 14:10:45;;;;;;;1999.90;999.90;;;13.50;99.90;;;;;;5098373;28;20632;-77
2021/05/11 14:13:11;;;;;;;1999.90;999.90;;;13.60;99.90;;;;;;5097714;28;20675;-77
2021/05/11 14:15:37;;;;;;;1999.90;999.90;;;13.50;99.90;;;;;;5097594;28;20188;-77
2021/05/11 14:18:03;;;;;;;1999.90;999.90;;;13.50;99.90;;;;;;5079138;28;20208;-78
2021/05/11 14:20:30;;;;;;;1999.90;999.90;;;13.30;99.90;;;;;;5079172;28;20226;-83
2021/05/11 14:22:56;;;;;;;1999.90;999.90;;;13.30;99.90;;;;;;5095828;28;20192;-84
2021/05/11 14:25:22;;;;;;;1999.90;999.90;;;13.30;99.90;;;;;;5095887;28;20187;-83
2021/05/11 14:27:47;;;;;;;1999.90;999.90;;;13.20;99.90;;;;;;5095303;28;20181;-83
2021/05/11 14:30:14;;;;;;;1999.90;999.90;;;13.10;99.90;;;;;;5076552;28;20168;-83
2021/05/11 14:32:39;;;;;;;1999.90;999.90;;;13.10;99.90;;;;;;5093305;28;20192;-83
2021/05/11 14:35:05;;;;;;;1999.90;999.90;;;13.20;99.90;;;;;;5097076;28;20165;-84
2021/05/11 14:37:31;;;;;;;1999.90;999.90;;;13.10;99.90;;;;;;5097683;28;20212;-83
2021/05/11 14:39:56;;;;;;;1999.90;999.90;;;13.00;99.90;;;;;;5096861;28;20197;-84
2021/05/11 14:44:57;;;;;;;1999.90;999.90;;;13.00;99.90;;;;;;5462138;22;20286;-84
2021/05/11 14:47:23;;;;;;;1999.90;999.90;;;13.10;99.90;;;;;;5077014;28;20169;-83
2021/05/11 14:49:48;;;;;;;1999.90;999.90;;;13.00;99.90;;;;;;5079166;28;20646;-84
2021/05/11 14:52:14;;;;;;;1999.90;999.90;;;13.00;99.90;;;;;;5078386;28;20602;-83
2021/05/11 14:54:41;;;;;;;1999.90;999.90;;;13.00;99.90;;;;;;5077619;28;20176;-83
2021/05/11 14:57:07;;;;;;;1999.90;999.90;;;13.20;99.90;;;;;;5084245;28;20261;-83
2021/05/11 14:59:33;;;;;;;1999.90;999.90;;;13.30;99.90;;;;;;5077784;28;20167;-83
2021/05/11 15:05:27;;;;;;;1999.90;999.90;;;12.90;99.90;;;;;;5013855;28;20210;-84
2021/05/11 15:07:54;;;;;;;1999.90;999.90;;;12.80;99.90;;;;;;5100697;28;20295;-84
2021/05/11 15:10:20;;;;;;;1999.90;999.90;;;12.90;99.90;;;;;;5099564;28;20172;-84
2021/05/11 15:12:47;;;;;;;1999.90;999.90;;;12.90;99.90;;;;;;5099792;28;20195;-83
2021/05/11 15:15:19;;;;;;;1999.90;999.90;;;12.80;99.90;;;;;;5098819;28;20593;-84
2021/05/11 15:20:12;;;;;;;1999.90;999.90;;;12.80;99.90;;;;;;5100495;28;20221;-83
2021/05/11 15:25:13;;;;;;;1999.90;999.90;;;12.70;99.90;;;;;;5058018;28;20205;-83
2021/05/11 15:27:39;;;;;;;1999.90;999.90;;;12.70;99.90;;;;;;5041093;28;20187;-83
2021/05/11 15:30:05;;;;;;;1999.90;999.90;;;12.70;99.90;;;;;;5059146;28;20177;-83
2021/05/11 15:39:23;;;;;;;1999.90;999.90;;;13.00;99.90;;;;;;5036085;28;20205;-83
2021/05/11 15:45:32;;;;;;;1999.90;999.90;;;12.80;99.90;;;;;;5094626;22;20584;-81
2021/05/11 15:48:03;;;;;;;1999.90;999.90;;;12.60;99.90;;;;;;5078454;28;20176;-81
2021/05/11 15:50:34;;;;;;;1999.90;999.90;;;12.50;99.90;;;;;;5060621;28;20199;-81
2021/05/11 15:53:02;;;;;;;1999.90;999.90;;;12.70;99.90;;;;;;5079093;28;20182;-82
2021/05/11 15:55:35;;;;;;;1999.90;999.90;;;12.50;99.90;;;;;;5079020;28;20204;-82
2021/05/11 15:58:02;;;;;;;1999.90;999.90;;;12.50;99.90;;;;;;5078416;28;20740;-81
2021/05/11 16:00:29;;;;;;;1999.90;999.90;;;12.60;99.90;;;;;;5058827;28;20185;-74
2021/05/11 16:02:55;;;;;;;1999.90;999.90;;;12.50;99.90;;;;;;5055858;28;20184;-83
2021/05/11 16:05:22;;;;;;;1999.90;999.90;;;12.50;99.90;;;;;;5064004;28;20190;-83
2021/05/11 16:07:48;;;;;;;1999.90;999.90;;;12.40;99.90;;;;;;5065084;28;20260;-82
2021/05/11 16:10:15;;;;;;;1999.90;999.90;;;12.30;99.90;;;;;;5079861;28;20632;-82
2021/05/11 16:12:41;;;;;;;1999.90;999.90;;;12.30;99.90;;;;;;5084585;28;20194;-82
2021/05/11 16:15:12;;;;;;;1999.90;999.90;;;12.30;99.90;;;;;;5079485;28;20197;-83
2021/05/11 16:17:38;;;;;;;1999.90;999.90;;;12.20;99.90;;;;;;5044750;28;20209;-84
2021/05/11 16:20:06;;;;;;;1999.90;999.90;;;12.20;99.90;;;;;;5070670;28;20166;-81
2021/05/11 16:22:32;;;;;;;1999.90;999.90;;;12.10;99.90;;;;;;5053560;28;20184;-83
2021/05/11 16:24:58;;;;;;;1999.90;999.90;;;12.10;99.90;;;;;;5083325;28;20221;-82
2021/05/11 16:27:24;;;;;;;1999.90;999.90;;;12.20;99.90;;;;;;5071108;28;20324;-83
2021/05/11 16:29:51;;;;;;;1999.90;999.90;;;12.20;99.90;;;;;;5073313;28;20184;-82
2021/05/11 16:32:17;;;;;;;1999.90;999.90;;;12.10;99.90;;;;;;5059268;28;20178;-83
2021/05/11 16:34:42;;;;;;;1999.90;999.90;;;12.10;99.90;;;;;;5061811;28;20660;-82
2021/05/11 16:37:08;;;;;;;1999.90;999.90;;;11.90;99.90;;;;;;5070065;28;20285;-82
2021/05/11 16:39:38;;;;;;;1999.90;999.90;;;12.00;99.90;;;;;;5059677;28;20198;-82
2021/05/11 16:42:04;;;;;;;1999.90;999.90;;;12.00;99.90;;;;;;5062179;28;20201;-84
2021/05/11 16:44:30;;;;;;;1999.90;999.90;;;12.00;99.90;;;;;;5079316;28;20237;-84
2021/05/11 16:46:56;;;;;;;1999.90;999.90;;;11.90;99.90;;;;;;5060710;28;20187;-84
2021/05/11 16:49:22;;;;;;;1999.90;999.90;;;11.90;99.90;;;;;;5077267;28;20199;-84
2021/05/11 16:51:48;;;;;;;1999.90;999.90;;;11.90;99.90;;;;;;5082007;28;20209;-84
2021/05/11 16:54:14;;;;;;;1999.90;999.90;;;11.90;99.90;;;;;;5082626;28;20203;-84
2021/05/11 16:56:39;;;;;;;1999.90;999.90;;;11.90;99.90;;;;;;5079700;28;20207;-84
2021/05/11 16:59:05;;;;;;;1999.90;999.90;;;11.90;99.90;;;;;;5074926;28;20662;-82
2021/05/11 17:01:32;;;;;;;1999.90;999.90;;;11.80;99.90;;;;;;5070373;28;20260;-84
2021/05/11 17:03:58;;;;;;;1999.90;999.90;;;11.80;99.90;;;;;;5074016;28;20197;-81
2021/05/11 17:06:23;;;;;;;1999.90;999.90;;;11.90;99.90;;;;;;5055044;28;20173;-84
2021/05/11 17:08:49;;;;;;;1999.90;999.90;;;11.90;99.90;;;;;;5061102;28;20258;-83
2021/05/11 17:11:15;;;;;;;1999.90;999.90;;;11.90;99.90;;;;;;5073374;28;20173;-83
2021/05/11 17:13:41;;;;;;;1999.90;999.90;;;12.00;99.90;;;;;;5074215;28;20187;-85
2021/05/11 17:16:09;;;;;;;1999.90;999.90;;;11.90;99.90;;;;;;5079902;28;20200;-84
2021/05/11 17:18:35;;;;;;;1999.90;999.90;;;11.80;99.90;;;;;;5059887;28;20200;-84
2021/05/11 17:21:01;;;;;;;1999.90;999.90;;;11.70;99.90;;;;;;5062844;28;20180;-84
2021/05/11 17:23:27;;;;;;;1999.90;999.90;;;11.80;99.90;;;;;;5072482;28;20170;-84
2021/05/11 17:25:54;;;;;;;1999.90;999.90;;;11.80;99.90;;;;;;5074538;28;20180;-83
2021/05/11 17:28:20;;;;;;;1999.90;999.90;;;11.70;99.90;;;;;;5053750;28;20670;-84
2021/05/11 17:30:48;;;;;;;1999.90;999.90;;;11.80;99.90;;;;;;5059793;28;20243;-84
2021/05/11 17:33:17;;;;;;;1999.90;999.90;;;11.80;99.90;;;;;;5047654;28;20178;-84
2021/05/11 17:35:42;;;;;;;1999.90;999.90;;;11.80;99.90;;;;;;5058963;28;20261;-82
2021/05/11 17:38:08;;;;;;;1999.90;999.90;;;11.80;99.90;;;;;;5066648;28;20217;-81
2021/05/11 17:40:34;;;;;;;1999.90;999.90;;;11.80;99.90;;;;;;5066209;28;20225;-82
2021/05/11 17:42:59;;;;;;;1999.90;999.90;;;11.90;99.90;;;;;;5067997;28;20181;-84
2021/05/11 17:45:27;;;;;;;1999.90;999.90;;;12.00;99.90;;;;;;5064028;28;20213;-82